sensor_id;sensor_type;location;lat;lon;timestamp;P1;durP1;ratioP1;P2;durP2;ratioP2
47349;SDS011;33088;51.982;5.872;2022-09-03T00:00:25;2.33;;;1.40;;
47349;SDS011;33088;51.982;5.872;2022-09-03T00:05:37;2.25;;;1.20;;
47349;SDS011;33088;51.982;5.872;2022-09-03T00:08:29;2.67;;;1.33;;
47349;SDS011;33088;51.982;5.872;2022-09-03T00:14:06;3.92;;;1.23;;
47349;SDS011;33088;51.982;5.872;2022-09-03T00:16:56;2.67;;;1.60;;
47349;SDS011;33088;51.982;5.872;2022-09-03T00:19:34;9.00;;;1.50;;
47349;SDS011;33088;51.982;5.872;2022-09-03T00:22:08;1.63;;;1.20;;
47349;SDS011;33088;51.982;5.872;2022-09-03T00:27:05;4.72;;;1.30;;
47349;SDS011;33088;51.982;5.872;2022-09-03T00:29:42;2.38;;;1.08;;
47349;SDS011;33088;51.982;5.872;2022-09-03T00:32:14;2.67;;;1.50;;
47349;SDS011;33088;51.982;5.872;2022-09-03T00:34:46;4.45;;;1.38;;
47349;SDS011;33088;51.982;5.872;2022-09-03T00:37:16;2.85;;;1.48;;
47349;SDS011;33088;51.982;5.872;2022-09-03T00:39:42;6.60;;;3.47;;
47349;SDS011;33088;51.982;5.872;2022-09-03T00:45:03;1.23;;;1.13;;
47349;SDS011;33088;51.982;5.872;2022-09-03T00:53:39;1.40;;;1.30;;
47349;SDS011;33088;51.982;5.872;2022-09-03T01:05:06;4.13;;;1.33;;
47349;SDS011;33088;51.982;5.872;2022-09-03T01:07:43;3.55;;;1.55;;
47349;SDS011;33088;51.982;5.872;2022-09-03T01:10:39;4.13;;;1.80;;
47349;SDS011;33088;51.982;5.872;2022-09-03T01:13:12;2.95;;;1.17;;
47349;SDS011;33088;51.982;5.872;2022-09-03T01:23:40;2.00;;;1.42;;
47349;SDS011;33088;51.982;5.872;2022-09-03T01:29:09;2.65;;;1.25;;
47349;SDS011;33088;51.982;5.872;2022-09-03T01:34:30;4.70;;;1.33;;
47349;SDS011;33088;51.982;5.872;2022-09-03T01:37:32;2.42;;;1.20;;
47349;SDS011;33088;51.982;5.872;2022-09-03T01:46:39;3.60;;;1.30;;
47349;SDS011;33088;51.982;5.872;2022-09-03T01:48:51;2.50;;;1.20;;
47349;SDS011;33088;51.982;5.872;2022-09-03T01:51:29;2.80;;;1.70;;
47349;SDS011;33088;51.982;5.872;2022-09-03T01:59:10;6.18;;;1.60;;
47349;SDS011;33088;51.982;5.872;2022-09-03T02:01:46;3.78;;;1.50;;
47349;SDS011;33088;51.982;5.872;2022-09-03T02:04:27;2.53;;;1.38;;
47349;SDS011;33088;51.982;5.872;2022-09-03T02:06:53;1.45;;;1.15;;
47349;SDS011;33088;51.982;5.872;2022-09-03T02:09:21;4.07;;;1.48;;
47349;SDS011;33088;51.982;5.872;2022-09-03T02:11:52;3.20;;;1.50;;
47349;SDS011;33088;51.982;5.872;2022-09-03T02:14:28;2.08;;;1.40;;
47349;SDS011;33088;51.982;5.872;2022-09-03T02:16:55;3.78;;;1.13;;
47349;SDS011;33088;51.982;5.872;2022-09-03T02:19:25;1.77;;;1.42;;
47349;SDS011;33088;51.982;5.872;2022-09-03T02:21:52;3.90;;;1.45;;
47349;SDS011;33088;51.982;5.872;2022-09-03T02:24:20;2.75;;;1.58;;
47349;SDS011;33088;51.982;5.872;2022-09-03T02:26:46;3.25;;;1.30;;
47349;SDS011;33088;51.982;5.872;2022-09-03T02:29:13;4.60;;;1.48;;
47349;SDS011;33088;51.982;5.872;2022-09-03T02:31:40;4.30;;;1.40;;
47349;SDS011;33088;51.982;5.872;2022-09-03T02:34:07;2.67;;;1.45;;
47349;SDS011;33088;51.982;5.872;2022-09-03T02:36:34;2.70;;;1.67;;
47349;SDS011;33088;51.982;5.872;2022-09-03T02:39:03;3.38;;;1.45;;
47349;SDS011;33088;51.982;5.872;2022-09-03T02:41:29;1.40;;;1.20;;
47349;SDS011;33088;51.982;5.872;2022-09-03T02:44:09;7.10;;;1.90;;
47349;SDS011;33088;51.982;5.872;2022-09-03T02:46:45;1.63;;;1.10;;
47349;SDS011;33088;51.982;5.872;2022-09-03T02:49:27;5.40;;;1.50;;
47349;SDS011;33088;51.982;5.872;2022-09-03T02:51:57;3.67;;;1.55;;
47349;SDS011;33088;51.982;5.872;2022-09-03T02:54:25;2.85;;;1.25;;
47349;SDS011;33088;51.982;5.872;2022-09-03T02:56:53;3.83;;;1.80;;
47349;SDS011;33088;51.982;5.872;2022-09-03T02:59:18;1.30;;;1.20;;
47349;SDS011;33088;51.982;5.872;2022-09-03T03:01:46;1.42;;;1.30;;
47349;SDS011;33088;51.982;5.872;2022-09-03T03:04:12;6.22;;;1.23;;
47349;SDS011;33088;51.982;5.872;2022-09-03T03:06:38;3.80;;;1.40;;
47349;SDS011;33088;51.982;5.872;2022-09-03T03:09:03;3.70;;;1.42;;
47349;SDS011;33088;51.982;5.872;2022-09-03T03:11:30;5.25;;;1.52;;
47349;SDS011;33088;51.982;5.872;2022-09-03T03:13:56;1.30;;;1.20;;
47349;SDS011;33088;51.982;5.872;2022-09-03T03:16:21;3.22;;;1.40;;
47349;SDS011;33088;51.982;5.872;2022-09-03T03:18:47;2.08;;;1.30;;
47349;SDS011;33088;51.982;5.872;2022-09-03T03:21:14;2.00;;;1.30;;
47349;SDS011;33088;51.982;5.872;2022-09-03T03:23:41;5.32;;;1.42;;
47349;SDS011;33088;51.982;5.872;2022-09-03T03:26:08;2.85;;;1.35;;
47349;SDS011;33088;51.982;5.872;2022-09-03T03:28:35;2.58;;;1.67;;
47349;SDS011;33088;51.982;5.872;2022-09-03T03:33:37;2.15;;;1.17;;
47349;SDS011;33088;51.982;5.872;2022-09-03T03:36:08;2.97;;;1.33;;
47349;SDS011;33088;51.982;5.872;2022-09-03T03:38:34;1.42;;;1.23;;
47349;SDS011;33088;51.982;5.872;2022-09-03T03:43:39;2.63;;;1.33;;
47349;SDS011;33088;51.982;5.872;2022-09-03T03:46:05;3.63;;;1.35;;
47349;SDS011;33088;51.982;5.872;2022-09-03T03:48:31;2.47;;;1.20;;
47349;SDS011;33088;51.982;5.872;2022-09-03T03:51:00;1.63;;;1.17;;
47349;SDS011;33088;51.982;5.872;2022-09-03T03:53:35;2.75;;;1.50;;
47349;SDS011;33088;51.982;5.872;2022-09-03T03:56:03;8.50;;;1.83;;
47349;SDS011;33088;51.982;5.872;2022-09-03T03:58:31;3.63;;;1.20;;
47349;SDS011;33088;51.982;5.872;2022-09-03T04:01:11;1.42;;;1.17;;
47349;SDS011;33088;51.982;5.872;2022-09-03T04:03:38;2.00;;;1.48;;
47349;SDS011;33088;51.982;5.872;2022-09-03T04:06:05;2.72;;;1.15;;
47349;SDS011;33088;51.982;5.872;2022-09-03T04:08:35;3.03;;;1.25;;
47349;SDS011;33088;51.982;5.872;2022-09-03T04:11:03;5.93;;;1.40;;
47349;SDS011;33088;51.982;5.872;2022-09-03T04:13:30;4.25;;;2.47;;
47349;SDS011;33088;51.982;5.872;2022-09-03T04:16:01;2.17;;;1.38;;
47349;SDS011;33088;51.982;5.872;2022-09-03T04:18:31;5.77;;;1.50;;
47349;SDS011;33088;51.982;5.872;2022-09-03T04:21:08;2.45;;;1.20;;
47349;SDS011;33088;51.982;5.872;2022-09-03T04:23:37;5.60;;;1.50;;
47349;SDS011;33088;51.982;5.872;2022-09-03T04:26:05;4.97;;;1.25;;
47349;SDS011;33088;51.982;5.872;2022-09-03T04:28:32;4.47;;;1.20;;
47349;SDS011;33088;51.982;5.872;2022-09-03T04:31:03;2.88;;;1.85;;
47349;SDS011;33088;51.982;5.872;2022-09-03T04:33:33;3.08;;;1.02;;
47349;SDS011;33088;51.982;5.872;2022-09-03T04:36:03;1.73;;;1.23;;
47349;SDS011;33088;51.982;5.872;2022-09-03T04:38:37;2.55;;;1.40;;
47349;SDS011;33088;51.982;5.872;2022-09-03T04:41:08;4.07;;;1.10;;
47349;SDS011;33088;51.982;5.872;2022-09-03T04:43:35;3.55;;;1.30;;
47349;SDS011;33088;51.982;5.872;2022-09-03T04:46:02;4.18;;;1.20;;
47349;SDS011;33088;51.982;5.872;2022-09-03T04:48:33;3.03;;;1.25;;
47349;SDS011;33088;51.982;5.872;2022-09-03T04:51:09;4.35;;;1.30;;
47349;SDS011;33088;51.982;5.872;2022-09-03T04:53:41;2.85;;;1.40;;
47349;SDS011;33088;51.982;5.872;2022-09-03T04:56:13;1.95;;;1.30;;
47349;SDS011;33088;51.982;5.872;2022-09-03T04:58:43;1.83;;;1.20;;
47349;SDS011;33088;51.982;5.872;2022-09-03T05:01:10;1.45;;;0.90;;
47349;SDS011;33088;51.982;5.872;2022-09-03T05:03:39;2.35;;;1.20;;
47349;SDS011;33088;51.982;5.872;2022-09-03T05:06:05;6.13;;;1.50;;
47349;SDS011;33088;51.982;5.872;2022-09-03T05:08:31;3.13;;;1.23;;
47349;SDS011;33088;51.982;5.872;2022-09-03T05:11:00;2.97;;;1.40;;
47349;SDS011;33088;51.982;5.872;2022-09-03T05:13:33;1.67;;;1.00;;
47349;SDS011;33088;51.982;5.872;2022-09-03T05:16:00;1.40;;;1.10;;
47349;SDS011;33088;51.982;5.872;2022-09-03T05:18:27;3.20;;;1.30;;
47349;SDS011;33088;51.982;5.872;2022-09-03T05:20:56;2.80;;;1.38;;
47349;SDS011;33088;51.982;5.872;2022-09-03T05:23:27;1.23;;;1.08;;
47349;SDS011;33088;51.982;5.872;2022-09-03T05:25:57;1.45;;;1.00;;
47349;SDS011;33088;51.982;5.872;2022-09-03T05:28:24;1.20;;;1.00;;
47349;SDS011;33088;51.982;5.872;2022-09-03T05:31:00;3.17;;;1.60;;
47349;SDS011;33088;51.982;5.872;2022-09-03T05:33:37;4.07;;;1.42;;
47349;SDS011;33088;51.982;5.872;2022-09-03T05:36:08;5.82;;;1.40;;
47349;SDS011;33088;51.982;5.872;2022-09-03T05:38:35;2.03;;;1.30;;
47349;SDS011;33088;51.982;5.872;2022-09-03T05:41:04;1.33;;;0.95;;
47349;SDS011;33088;51.982;5.872;2022-09-03T05:43:32;5.00;;;1.52;;
47349;SDS011;33088;51.982;5.872;2022-09-03T05:46:04;7.30;;;1.30;;
47349;SDS011;33088;51.982;5.872;2022-09-03T05:48:36;1.33;;;1.00;;
47349;SDS011;33088;51.982;5.872;2022-09-03T05:51:03;3.75;;;1.02;;
47349;SDS011;33088;51.982;5.872;2022-09-03T05:53:32;3.30;;;1.20;;
47349;SDS011;33088;51.982;5.872;2022-09-03T05:56:00;1.13;;;1.02;;
47349;SDS011;33088;51.982;5.872;2022-09-03T05:58:30;4.07;;;1.13;;
47349;SDS011;33088;51.982;5.872;2022-09-03T06:00:56;1.30;;;1.20;;
47349;SDS011;33088;51.982;5.872;2022-09-03T06:03:23;3.38;;;1.30;;
47349;SDS011;33088;51.982;5.872;2022-09-03T06:05:49;3.60;;;1.25;;
47349;SDS011;33088;51.982;5.872;2022-09-03T06:08:16;1.15;;;1.05;;
47349;SDS011;33088;51.982;5.872;2022-09-03T06:10:41;4.00;;;1.33;;
47349;SDS011;33088;51.982;5.872;2022-09-03T06:13:07;1.35;;;1.10;;
47349;SDS011;33088;51.982;5.872;2022-09-03T06:15:33;5.25;;;1.23;;
47349;SDS011;33088;51.982;5.872;2022-09-03T06:17:58;6.28;;;1.40;;
47349;SDS011;33088;51.982;5.872;2022-09-03T06:20:24;4.68;;;1.70;;
47349;SDS011;33088;51.982;5.872;2022-09-03T06:22:53;1.60;;;1.10;;
47349;SDS011;33088;51.982;5.872;2022-09-03T06:25:19;6.13;;;1.92;;
47349;SDS011;33088;51.982;5.872;2022-09-03T06:27:48;8.73;;;1.27;;
47349;SDS011;33088;51.982;5.872;2022-09-03T06:30:26;3.00;;;1.48;;
47349;SDS011;33088;51.982;5.872;2022-09-03T06:32:51;6.05;;;1.30;;
47349;SDS011;33088;51.982;5.872;2022-09-03T06:35:20;8.70;;;1.67;;
47349;SDS011;33088;51.982;5.872;2022-09-03T06:37:46;3.95;;;1.40;;
47349;SDS011;33088;51.982;5.872;2022-09-03T06:40:11;3.38;;;1.50;;
47349;SDS011;33088;51.982;5.872;2022-09-03T06:42:40;2.15;;;1.02;;
47349;SDS011;33088;51.982;5.872;2022-09-03T06:45:10;4.50;;;1.70;;
47349;SDS011;33088;51.982;5.872;2022-09-03T06:47:36;8.25;;;2.25;;
47349;SDS011;33088;51.982;5.872;2022-09-03T06:50:01;4.20;;;1.33;;
47349;SDS011;33088;51.982;5.872;2022-09-03T06:52:28;11.50;;;1.98;;
47349;SDS011;33088;51.982;5.872;2022-09-03T06:54:54;8.02;;;1.80;;
47349;SDS011;33088;51.982;5.872;2022-09-03T06:57:19;4.10;;;1.10;;
47349;SDS011;33088;51.982;5.872;2022-09-03T06:59:45;5.43;;;1.90;;
47349;SDS011;33088;51.982;5.872;2022-09-03T07:02:11;1.65;;;1.50;;
47349;SDS011;33088;51.982;5.872;2022-09-03T07:04:36;2.88;;;1.80;;
47349;SDS011;33088;51.982;5.872;2022-09-03T07:07:02;2.88;;;1.55;;
47349;SDS011;33088;51.982;5.872;2022-09-03T07:09:28;4.03;;;1.63;;
47349;SDS011;33088;51.982;5.872;2022-09-03T07:11:54;4.10;;;1.40;;
47349;SDS011;33088;51.982;5.872;2022-09-03T07:14:20;2.38;;;1.70;;
47349;SDS011;33088;51.982;5.872;2022-09-03T07:16:46;5.78;;;1.85;;
47349;SDS011;33088;51.982;5.872;2022-09-03T07:19:13;7.25;;;1.58;;
47349;SDS011;33088;51.982;5.872;2022-09-03T07:21:40;2.33;;;1.60;;
47349;SDS011;33088;51.982;5.872;2022-09-03T07:24:07;2.30;;;1.70;;
47349;SDS011;33088;51.982;5.872;2022-09-03T07:26:34;3.80;;;1.30;;
47349;SDS011;33088;51.982;5.872;2022-09-03T07:29:08;3.03;;;1.80;;
47349;SDS011;33088;51.982;5.872;2022-09-03T07:31:36;3.80;;;1.50;;
47349;SDS011;33088;51.982;5.872;2022-09-03T07:34:04;2.88;;;1.55;;
47349;SDS011;33088;51.982;5.872;2022-09-03T07:36:38;2.88;;;1.80;;
47349;SDS011;33088;51.982;5.872;2022-09-03T07:39:07;3.15;;;1.50;;
47349;SDS011;33088;51.982;5.872;2022-09-03T07:41:33;4.53;;;1.60;;
47349;SDS011;33088;51.982;5.872;2022-09-03T07:43:59;5.47;;;1.80;;
47349;SDS011;33088;51.982;5.872;2022-09-03T07:46:30;5.55;;;1.83;;
47349;SDS011;33088;51.982;5.872;2022-09-03T07:48:58;5.88;;;1.48;;
47349;SDS011;33088;51.982;5.872;2022-09-03T07:51:28;2.72;;;1.48;;
47349;SDS011;33088;51.982;5.872;2022-09-03T07:53:56;3.03;;;1.52;;
47349;SDS011;33088;51.982;5.872;2022-09-03T07:56:26;3.95;;;1.52;;
47349;SDS011;33088;51.982;5.872;2022-09-03T07:58:55;3.55;;;1.15;;
47349;SDS011;33088;51.982;5.872;2022-09-03T08:01:22;4.00;;;1.40;;
47349;SDS011;33088;51.982;5.872;2022-09-03T08:03:49;6.10;;;1.65;;
47349;SDS011;33088;51.982;5.872;2022-09-03T08:06:18;4.75;;;1.55;;
47349;SDS011;33088;51.982;5.872;2022-09-03T08:08:46;5.90;;;1.75;;
47349;SDS011;33088;51.982;5.872;2022-09-03T08:11:13;1.60;;;1.50;;
47349;SDS011;33088;51.982;5.872;2022-09-03T08:13:42;1.98;;;1.58;;
47349;SDS011;33088;51.982;5.872;2022-09-03T08:16:10;5.43;;;1.60;;
47349;SDS011;33088;51.982;5.872;2022-09-03T08:18:37;3.60;;;1.30;;
47349;SDS011;33088;51.982;5.872;2022-09-03T08:21:07;2.47;;;1.95;;
47349;SDS011;33088;51.982;5.872;2022-09-03T08:23:38;5.40;;;1.57;;
47349;SDS011;33088;51.982;5.872;2022-09-03T08:26:05;2.22;;;1.65;;
47349;SDS011;33088;51.982;5.872;2022-09-03T08:28:32;4.95;;;1.60;;
47349;SDS011;33088;51.982;5.872;2022-09-03T08:31:03;6.40;;;1.50;;
47349;SDS011;33088;51.982;5.872;2022-09-03T08:33:43;5.55;;;1.23;;
47349;SDS011;33088;51.982;5.872;2022-09-03T08:36:15;6.00;;;1.10;;
47349;SDS011;33088;51.982;5.872;2022-09-03T08:38:42;8.60;;;1.40;;
47349;SDS011;33088;51.982;5.872;2022-09-03T08:57:52;3.42;;;0.90;;
47349;SDS011;33088;51.982;5.872;2022-09-03T09:00:47;4.45;;;1.38;;
47349;SDS011;33088;51.982;5.872;2022-09-03T09:03:27;4.82;;;1.00;;
47349;SDS011;33088;51.982;5.872;2022-09-03T09:19:53;5.00;;;1.30;;
47349;SDS011;33088;51.982;5.872;2022-09-03T09:25:11;4.22;;;1.42;;
47349;SDS011;33088;51.982;5.872;2022-09-03T09:30:29;3.13;;;1.30;;
47349;SDS011;33088;51.982;5.872;2022-09-03T09:32:56;4.68;;;1.40;;
47349;SDS011;33088;51.982;5.872;2022-09-03T09:35:22;1.67;;;0.93;;
47349;SDS011;33088;51.982;5.872;2022-09-03T09:37:48;3.45;;;1.30;;
47349;SDS011;33088;51.982;5.872;2022-09-03T09:40:32;1.60;;;1.05;;
47349;SDS011;33088;51.982;5.872;2022-09-03T09:43:04;9.90;;;1.65;;
47349;SDS011;33088;51.982;5.872;2022-09-03T09:45:32;3.58;;;1.40;;
47349;SDS011;33088;51.982;5.872;2022-09-03T09:47:59;5.72;;;1.52;;
47349;SDS011;33088;51.982;5.872;2022-09-03T09:50:26;3.90;;;1.23;;
47349;SDS011;33088;51.982;5.872;2022-09-03T09:52:59;2.95;;;1.83;;
47349;SDS011;33088;51.982;5.872;2022-09-03T09:55:28;3.05;;;1.40;;
47349;SDS011;33088;51.982;5.872;2022-09-03T09:58:03;2.58;;;1.45;;
47349;SDS011;33088;51.982;5.872;2022-09-03T10:00:33;2.45;;;1.20;;
47349;SDS011;33088;51.982;5.872;2022-09-03T10:03:01;2.22;;;1.20;;
47349;SDS011;33088;51.982;5.872;2022-09-03T10:05:35;3.70;;;1.38;;
47349;SDS011;33088;51.982;5.872;2022-09-03T10:08:05;2.13;;;1.60;;
47349;SDS011;33088;51.982;5.872;2022-09-03T10:10:43;3.33;;;1.63;;
47349;SDS011;33088;51.982;5.872;2022-09-03T10:13:17;4.40;;;1.70;;
47349;SDS011;33088;51.982;5.872;2022-09-03T10:15:57;1.73;;;1.60;;
47349;SDS011;33088;51.982;5.872;2022-09-03T10:21:43;9.95;;;1.40;;
47349;SDS011;33088;51.982;5.872;2022-09-03T10:24:36;2.53;;;1.30;;
47349;SDS011;33088;51.982;5.872;2022-09-03T10:29:50;3.97;;;1.30;;
47349;SDS011;33088;51.982;5.872;2022-09-03T10:42:42;3.55;;;1.30;;
47349;SDS011;33088;51.982;5.872;2022-09-03T10:50:47;3.92;;;1.45;;
47349;SDS011;33088;51.982;5.872;2022-09-03T11:05:01;2.08;;;1.35;;
47349;SDS011;33088;51.982;5.872;2022-09-03T11:07:41;2.92;;;1.10;;
47349;SDS011;33088;51.982;5.872;2022-09-03T11:10:29;4.38;;;1.13;;
47349;SDS011;33088;51.982;5.872;2022-09-03T11:18:41;3.00;;;1.20;;
47349;SDS011;33088;51.982;5.872;2022-09-03T11:21:14;1.65;;;1.10;;
47349;SDS011;33088;51.982;5.872;2022-09-03T11:23:45;3.97;;;1.60;;
47349;SDS011;33088;51.982;5.872;2022-09-03T11:26:17;8.32;;;1.42;;
47349;SDS011;33088;51.982;5.872;2022-09-03T11:36:49;6.53;;;1.60;;
47349;SDS011;33088;51.982;5.872;2022-09-03T11:42:00;6.40;;;1.38;;
47349;SDS011;33088;51.982;5.872;2022-09-03T11:44:37;3.75;;;1.10;;
47349;SDS011;33088;51.982;5.872;2022-09-03T11:47:16;6.25;;;1.35;;
47349;SDS011;33088;51.982;5.872;2022-09-03T11:49:49;5.18;;;1.55;;
47349;SDS011;33088;51.982;5.872;2022-09-03T11:52:27;4.10;;;1.40;;
47349;SDS011;33088;51.982;5.872;2022-09-03T11:54:55;4.13;;;1.95;;
47349;SDS011;33088;51.982;5.872;2022-09-03T11:57:27;8.18;;;1.50;;
47349;SDS011;33088;51.982;5.872;2022-09-03T12:02:42;4.15;;;1.45;;
47349;SDS011;33088;51.982;5.872;2022-09-03T12:05:16;2.70;;;1.13;;
47349;SDS011;33088;51.982;5.872;2022-09-03T12:19:09;3.88;;;1.70;;
47349;SDS011;33088;51.982;5.872;2022-09-03T12:21:47;2.22;;;1.58;;
47349;SDS011;33088;51.982;5.872;2022-09-03T12:24:13;2.85;;;1.35;;
47349;SDS011;33088;51.982;5.872;2022-09-03T12:26:40;3.75;;;1.83;;
47349;SDS011;33088;51.982;5.872;2022-09-03T12:29:16;3.05;;;1.40;;
47349;SDS011;33088;51.982;5.872;2022-09-03T12:31:46;1.55;;;1.27;;
47349;SDS011;33088;51.982;5.872;2022-09-03T12:36:48;4.78;;;1.45;;
47349;SDS011;33088;51.982;5.872;2022-09-03T12:44:46;1.48;;;1.38;;
47349;SDS011;33088;51.982;5.872;2022-09-03T12:47:12;6.03;;;1.38;;
47349;SDS011;33088;51.982;5.872;2022-09-03T12:49:41;3.88;;;1.48;;
47349;SDS011;33088;51.982;5.872;2022-09-03T12:57:20;3.42;;;1.50;;
47349;SDS011;33088;51.982;5.872;2022-09-03T12:59:49;1.35;;;1.25;;
47349;SDS011;33088;51.982;5.872;2022-09-03T13:02:22;3.90;;;1.48;;
47349;SDS011;33088;51.982;5.872;2022-09-03T13:04:59;3.53;;;1.48;;
47349;SDS011;33088;51.982;5.872;2022-09-03T13:07:30;7.10;;;1.70;;
47349;SDS011;33088;51.982;5.872;2022-09-03T13:10:03;2.00;;;1.30;;
47349;SDS011;33088;51.982;5.872;2022-09-03T13:12:41;3.35;;;1.27;;
47349;SDS011;33088;51.982;5.872;2022-09-03T13:15:09;5.03;;;1.50;;
47349;SDS011;33088;51.982;5.872;2022-09-03T13:18:05;3.00;;;1.60;;
47349;SDS011;33088;51.982;5.872;2022-09-03T13:23:39;3.35;;;1.23;;
47349;SDS011;33088;51.982;5.872;2022-09-03T13:31:52;1.90;;;1.63;;
47349;SDS011;33088;51.982;5.872;2022-09-03T13:34:28;1.60;;;1.50;;
47349;SDS011;33088;51.982;5.872;2022-09-03T13:39:47;1.13;;;1.13;;
47349;SDS011;33088;51.982;5.872;2022-09-03T13:47:31;6.32;;;1.98;;
47349;SDS011;33088;51.982;5.872;2022-09-03T13:50:09;3.10;;;2.05;;
47349;SDS011;33088;51.982;5.872;2022-09-03T13:52:56;3.13;;;1.30;;
47349;SDS011;33088;51.982;5.872;2022-09-03T13:55:48;5.30;;;1.90;;
47349;SDS011;33088;51.982;5.872;2022-09-03T13:58:29;11.80;;;2.25;;
47349;SDS011;33088;51.982;5.872;2022-09-03T14:03:59;2.08;;;1.70;;
47349;SDS011;33088;51.982;5.872;2022-09-03T14:09:00;6.18;;;2.78;;
47349;SDS011;33088;51.982;5.872;2022-09-03T14:12:04;3.78;;;1.95;;
47349;SDS011;33088;51.982;5.872;2022-09-03T14:23:00;2.95;;;2.42;;
47349;SDS011;33088;51.982;5.872;2022-09-03T14:25:31;3.03;;;1.75;;
47349;SDS011;33088;51.982;5.872;2022-09-03T14:30:59;5.45;;;1.90;;
47349;SDS011;33088;51.982;5.872;2022-09-03T14:41:48;2.65;;;1.67;;
47349;SDS011;33088;51.982;5.872;2022-09-03T14:47:35;7.05;;;1.88;;
47349;SDS011;33088;51.982;5.872;2022-09-03T14:50:18;7.65;;;2.00;;
47349;SDS011;33088;51.982;5.872;2022-09-03T14:53:01;3.67;;;1.88;;
47349;SDS011;33088;51.982;5.872;2022-09-03T15:01:32;2.78;;;1.58;;
47349;SDS011;33088;51.982;5.872;2022-09-03T15:04:12;12.55;;;3.13;;
47349;SDS011;33088;51.982;5.872;2022-09-03T15:12:39;3.72;;;1.90;;
47349;SDS011;33088;51.982;5.872;2022-09-03T15:18:16;2.22;;;1.98;;
47349;SDS011;33088;51.982;5.872;2022-09-03T15:23:22;3.45;;;1.67;;
47349;SDS011;33088;51.982;5.872;2022-09-03T15:26:09;3.35;;;2.00;;
47349;SDS011;33088;51.982;5.872;2022-09-03T15:31:23;5.38;;;1.88;;
47349;SDS011;33088;51.982;5.872;2022-09-03T15:37:01;2.88;;;1.88;;
47349;SDS011;33088;51.982;5.872;2022-09-03T15:39:36;2.60;;;1.73;;
47349;SDS011;33088;51.982;5.872;2022-09-03T15:42:07;4.75;;;2.03;;
47349;SDS011;33088;51.982;5.872;2022-09-03T15:44:52;4.18;;;1.52;;
47349;SDS011;33088;51.982;5.872;2022-09-03T15:50:28;6.78;;;1.75;;
47349;SDS011;33088;51.982;5.872;2022-09-03T15:53:11;2.55;;;1.90;;
47349;SDS011;33088;51.982;5.872;2022-09-03T15:56:42;4.63;;;1.30;;
47349;SDS011;33088;51.982;5.872;2022-09-03T16:01:31;2.20;;;1.85;;
47349;SDS011;33088;51.982;5.872;2022-09-03T16:12:32;1.63;;;1.48;;
47349;SDS011;33088;51.982;5.872;2022-09-03T16:15:35;2.42;;;1.83;;
47349;SDS011;33088;51.982;5.872;2022-09-03T16:18:22;2.40;;;1.92;;
47349;SDS011;33088;51.982;5.872;2022-09-03T16:29:13;2.33;;;1.80;;
47349;SDS011;33088;51.982;5.872;2022-09-03T16:37:05;2.40;;;1.73;;
47349;SDS011;33088;51.982;5.872;2022-09-03T16:42:20;5.75;;;1.73;;
47349;SDS011;33088;51.982;5.872;2022-09-03T16:50:30;2.55;;;2.10;;
47349;SDS011;33088;51.982;5.872;2022-09-03T16:53:15;2.78;;;1.70;;
47349;SDS011;33088;51.982;5.872;2022-09-03T16:58:47;3.50;;;1.48;;
47349;SDS011;33088;51.982;5.872;2022-09-03T17:04:30;6.65;;;1.80;;
47349;SDS011;33088;51.982;5.872;2022-09-03T17:07:16;3.60;;;2.03;;
47349;SDS011;33088;51.982;5.872;2022-09-03T17:12:39;2.70;;;2.50;;
47349;SDS011;33088;51.982;5.872;2022-09-03T17:20:37;3.47;;;2.53;;
47349;SDS011;33088;51.982;5.872;2022-09-03T17:26:33;2.25;;;1.92;;
47349;SDS011;33088;51.982;5.872;2022-09-03T17:32:05;5.03;;;2.10;;
47349;SDS011;33088;51.982;5.872;2022-09-03T17:45:18;52.20;;;30.10;;
47349;SDS011;33088;51.982;5.872;2022-09-03T17:48:03;27.13;;;17.05;;
47349;SDS011;33088;51.982;5.872;2022-09-03T17:50:33;65.28;;;39.10;;
47349;SDS011;33088;51.982;5.872;2022-09-03T17:53:18;31.00;;;17.35;;
47349;SDS011;33088;51.982;5.872;2022-09-03T17:55:58;12.77;;;8.07;;
47349;SDS011;33088;51.982;5.872;2022-09-03T17:58:33;6.95;;;4.50;;
47349;SDS011;33088;51.982;5.872;2022-09-03T18:01:11;3.50;;;2.47;;
47349;SDS011;33088;51.982;5.872;2022-09-03T18:03:52;2.88;;;2.35;;
47349;SDS011;33088;51.982;5.872;2022-09-03T18:06:23;4.95;;;2.30;;
47349;SDS011;33088;51.982;5.872;2022-09-03T18:14:48;3.15;;;2.35;;
47349;SDS011;33088;51.982;5.872;2022-09-03T18:20:27;3.95;;;2.92;;
47349;SDS011;33088;51.982;5.872;2022-09-03T18:23:25;2.90;;;2.20;;
47349;SDS011;33088;51.982;5.872;2022-09-03T18:26:28;3.00;;;2.70;;
47349;SDS011;33088;51.982;5.872;2022-09-03T18:30:00;3.95;;;2.70;;
47349;SDS011;33088;51.982;5.872;2022-09-03T18:32:34;3.03;;;2.50;;
47349;SDS011;33088;51.982;5.872;2022-09-03T18:35:19;5.00;;;2.55;;
47349;SDS011;33088;51.982;5.872;2022-09-03T18:38:03;5.90;;;2.85;;
47349;SDS011;33088;51.982;5.872;2022-09-03T18:53:10;5.22;;;2.58;;
47349;SDS011;33088;51.982;5.872;2022-09-03T19:01:51;6.88;;;2.33;;
47349;SDS011;33088;51.982;5.872;2022-09-03T19:04:44;4.85;;;2.55;;
47349;SDS011;33088;51.982;5.872;2022-09-03T19:07:47;3.63;;;2.15;;
47349;SDS011;33088;51.982;5.872;2022-09-03T19:13:35;3.53;;;3.22;;
47349;SDS011;33088;51.982;5.872;2022-09-03T19:22:36;5.18;;;2.33;;
47349;SDS011;33088;51.982;5.872;2022-09-03T19:25:23;3.20;;;2.40;;
47349;SDS011;33088;51.982;5.872;2022-09-03T19:52:08;3.47;;;2.90;;
47349;SDS011;33088;51.982;5.872;2022-09-03T19:55:18;6.65;;;3.00;;
47349;SDS011;33088;51.982;5.872;2022-09-03T19:58:07;5.20;;;2.90;;
47349;SDS011;33088;51.982;5.872;2022-09-03T20:00:52;5.22;;;2.85;;
47349;SDS011;33088;51.982;5.872;2022-09-03T20:03:37;5.85;;;2.75;;
47349;SDS011;33088;51.982;5.872;2022-09-03T20:06:21;3.70;;;3.22;;
47349;SDS011;33088;51.982;5.872;2022-09-03T20:09:08;3.70;;;2.65;;
47349;SDS011;33088;51.982;5.872;2022-09-03T20:11:55;7.43;;;3.53;;
47349;SDS011;33088;51.982;5.872;2022-09-03T20:14:26;5.68;;;2.90;;
47349;SDS011;33088;51.982;5.872;2022-09-03T20:17:43;5.50;;;3.17;;
47349;SDS011;33088;51.982;5.872;2022-09-03T20:20:12;4.00;;;3.00;;
47349;SDS011;33088;51.982;5.872;2022-09-03T20:22:52;4.38;;;3.10;;
47349;SDS011;33088;51.982;5.872;2022-09-03T20:31:22;5.35;;;2.95;;
47349;SDS011;33088;51.982;5.872;2022-09-03T20:33:56;3.58;;;2.83;;
47349;SDS011;33088;51.982;5.872;2022-09-03T20:57:50;3.78;;;3.00;;
47349;SDS011;33088;51.982;5.872;2022-09-03T21:00:19;4.72;;;2.83;;
47349;SDS011;33088;51.982;5.872;2022-09-03T21:05:29;7.47;;;2.88;;
47349;SDS011;33088;51.982;5.872;2022-09-03T21:08:06;5.10;;;2.95;;
47349;SDS011;33088;51.982;5.872;2022-09-03T21:10:57;4.28;;;2.78;;
47349;SDS011;33088;51.982;5.872;2022-09-03T21:15:59;4.00;;;3.08;;
47349;SDS011;33088;51.982;5.872;2022-09-03T21:21:30;6.28;;;3.38;;
47349;SDS011;33088;51.982;5.872;2022-09-03T21:24:01;6.05;;;3.63;;
47349;SDS011;33088;51.982;5.872;2022-09-03T21:26:33;8.68;;;3.88;;
47349;SDS011;33088;51.982;5.872;2022-09-03T21:29:08;6.22;;;4.20;;
47349;SDS011;33088;51.982;5.872;2022-09-03T21:31:48;8.68;;;4.50;;
47349;SDS011;33088;51.982;5.872;2022-09-03T21:34:42;7.55;;;4.10;;
47349;SDS011;33088;51.982;5.872;2022-09-03T21:37:15;6.85;;;3.88;;
47349;SDS011;33088;51.982;5.872;2022-09-03T21:39:45;6.45;;;4.35;;
47349;SDS011;33088;51.982;5.872;2022-09-03T21:42:30;8.68;;;4.80;;
47349;SDS011;33088;51.982;5.872;2022-09-03T21:45:15;7.22;;;4.50;;
47349;SDS011;33088;51.982;5.872;2022-09-03T21:48:12;11.73;;;4.57;;
47349;SDS011;33088;51.982;5.872;2022-09-03T21:50:53;8.77;;;4.28;;
47349;SDS011;33088;51.982;5.872;2022-09-03T21:54:08;5.72;;;4.03;;
47349;SDS011;33088;51.982;5.872;2022-09-03T22:04:08;5.28;;;3.88;;
47349;SDS011;33088;51.982;5.872;2022-09-03T22:14:43;9.43;;;4.20;;
47349;SDS011;33088;51.982;5.872;2022-09-03T22:17:18;8.52;;;4.93;;
47349;SDS011;33088;51.982;5.872;2022-09-03T22:19:53;8.10;;;4.45;;
47349;SDS011;33088;51.982;5.872;2022-09-03T22:22:24;9.73;;;4.18;;